sensor_id;sensor_type;location;lat;lon;timestamp;pressure;altitude;pressure_sealevel;temperature;humidity
34237;BME280;20501;45.956;13.632;2023-01-30T00:01:37;101285.16;;;9.58;43.28
34237;BME280;20501;45.956;13.632;2023-01-30T00:04:03;101288.69;;;9.58;44.55
34237;BME280;20501;45.956;13.632;2023-01-30T00:06:29;101291.13;;;9.26;44.94
34237;BME280;20501;45.956;13.632;2023-01-30T00:08:54;101283.50;;;9.20;44.34
34237;BME280;20501;45.956;13.632;2023-01-30T00:11:20;101278.91;;;8.20;45.54
34237;BME280;20501;45.956;13.632;2023-01-30T00:13:47;101273.09;;;8.65;45.01
34237;BME280;20501;45.956;13.632;2023-01-30T00:16:13;101266.41;;;8.32;45.40
34237;BME280;20501;45.956;13.632;2023-01-30T00:18:40;101273.03;;;8.91;45.67
34237;BME280;20501;45.956;13.632;2023-01-30T00:21:09;101264.38;;;9.71;43.88
34237;BME280;20501;45.956;13.632;2023-01-30T00:23:36;101261.47;;;9.50;43.68
34237;BME280;20501;45.956;13.632;2023-01-30T00:26:02;101252.47;;;9.14;45.07
34237;BME280;20501;45.956;13.632;2023-01-30T00:28:28;101248.56;;;8.05;44.39
34237;BME280;20501;45.956;13.632;2023-01-30T00:30:54;101246.94;;;8.91;45.83
34237;BME280;20501;45.956;13.632;2023-01-30T00:33:22;101246.09;;;9.15;45.39
34237;BME280;20501;45.956;13.632;2023-01-30T00:35:49;101236.59;;;8.35;46.73
34237;BME280;20501;45.956;13.632;2023-01-30T00:38:15;101238.31;;;8.62;44.39
34237;BME280;20501;45.956;13.632;2023-01-30T00:40:41;101233.53;;;9.03;45.54
34237;BME280;20501;45.956;13.632;2023-01-30T00:43:08;101236.50;;;5.90;50.21
34237;BME280;20501;45.956;13.632;2023-01-30T00:45:53;101228.09;;;6.40;52.60
34237;BME280;20501;45.956;13.632;2023-01-30T00:48:37;101231.66;;;7.77;48.90
34237;BME280;20501;45.956;13.632;2023-01-30T00:51:03;101232.75;;;7.07;45.18
34237;BME280;20501;45.956;13.632;2023-01-30T00:53:29;101226.75;;;6.89;50.10
34237;BME280;20501;45.956;13.632;2023-01-30T00:55:54;101218.66;;;6.76;46.66
34237;BME280;20501;45.956;13.632;2023-01-30T00:58:21;101225.16;;;6.30;47.70
34237;BME280;20501;45.956;13.632;2023-01-30T01:00:47;101223.22;;;7.43;49.23
34237;BME280;20501;45.956;13.632;2023-01-30T01:03:13;101237.22;;;8.64;46.85
34237;BME280;20501;45.956;13.632;2023-01-30T01:05:38;101222.38;;;8.59;43.24
34237;BME280;20501;45.956;13.632;2023-01-30T01:08:04;101221.84;;;8.28;46.72
34237;BME280;20501;45.956;13.632;2023-01-30T01:10:30;101221.09;;;7.74;47.62
34237;BME280;20501;45.956;13.632;2023-01-30T01:12:56;101219.81;;;8.05;47.98
34237;BME280;20501;45.956;13.632;2023-01-30T01:15:24;101220.97;;;7.75;48.50
34237;BME280;20501;45.956;13.632;2023-01-30T01:17:50;101217.88;;;7.95;44.94
34237;BME280;20501;45.956;13.632;2023-01-30T01:20:16;101212.25;;;8.87;45.35
34237;BME280;20501;45.956;13.632;2023-01-30T01:22:42;101211.78;;;8.69;44.87
34237;BME280;20501;45.956;13.632;2023-01-30T01:25:08;101208.38;;;8.91;45.44
34237;BME280;20501;45.956;13.632;2023-01-30T01:27:35;101201.50;;;8.11;46.83
34237;BME280;20501;45.956;13.632;2023-01-30T01:30:00;101202.47;;;8.23;46.07
34237;BME280;20501;45.956;13.632;2023-01-30T01:32:25;101192.00;;;6.73;48.04
34237;BME280;20501;45.956;13.632;2023-01-30T01:34:51;101203.22;;;6.65;48.73
34237;BME280;20501;45.956;13.632;2023-01-30T01:37:16;101191.59;;;7.06;47.31
34237;BME280;20501;45.956;13.632;2023-01-30T01:39:42;101194.06;;;8.40;43.81
34237;BME280;20501;45.956;13.632;2023-01-30T01:42:29;101176.41;;;7.33;47.39
34237;BME280;20501;45.956;13.632;2023-01-30T01:47:56;101188.88;;;8.37;45.39
34237;BME280;20501;45.956;13.632;2023-01-30T01:51:04;101174.47;;;8.12;47.59
34237;BME280;20501;45.956;13.632;2023-01-30T01:53:36;101169.25;;;7.72;44.40
34237;BME280;20501;45.956;13.632;2023-01-30T01:56:03;101176.78;;;7.93;47.93
34237;BME280;20501;45.956;13.632;2023-01-30T01:58:44;101176.75;;;8.18;47.12
34237;BME280;20501;45.956;13.632;2023-01-30T02:01:11;101173.63;;;8.75;45.72
34237;BME280;20501;45.956;13.632;2023-01-30T02:03:40;101174.94;;;9.18;45.03
34237;BME280;20501;45.956;13.632;2023-01-30T02:06:07;101169.25;;;9.56;42.87
34237;BME280;20501;45.956;13.632;2023-01-30T02:08:40;101173.75;;;8.60;45.87
34237;BME280;20501;45.956;13.632;2023-01-30T02:13:46;101173.25;;;9.75;43.85
34237;BME280;20501;45.956;13.632;2023-01-30T02:16:12;101167.91;;;9.51;44.23
34237;BME280;20501;45.956;13.632;2023-01-30T02:18:41;101159.00;;;9.14;41.69
34237;BME280;20501;45.956;13.632;2023-01-30T02:21:49;101168.69;;;8.69;45.57
34237;BME280;20501;45.956;13.632;2023-01-30T02:32:44;101154.50;;;7.90;43.61
34237;BME280;20501;45.956;13.632;2023-01-30T02:46:22;101144.47;;;8.56;45.04
34237;BME280;20501;45.956;13.632;2023-01-30T02:48:54;101146.22;;;7.42;47.02
34237;BME280;20501;45.956;13.632;2023-01-30T02:51:34;101143.03;;;6.55;45.41
34237;BME280;20501;45.956;13.632;2023-01-30T02:54:01;101134.53;;;6.48;48.51
34237;BME280;20501;45.956;13.632;2023-01-30T02:56:26;101135.53;;;3.55;53.32
34237;BME280;20501;45.956;13.632;2023-01-30T02:59:01;101134.59;;;2.49;56.51
34237;BME280;20501;45.956;13.632;2023-01-30T03:07:24;101138.44;;;6.00;53.81
34237;BME280;20501;45.956;13.632;2023-01-30T03:12:48;101123.28;;;7.62;48.94
34237;BME280;20501;45.956;13.632;2023-01-30T03:17:47;101109.84;;;8.87;46.02
34237;BME280;20501;45.956;13.632;2023-01-30T03:20:13;101113.47;;;8.13;44.32
34237;BME280;20501;45.956;13.632;2023-01-30T03:22:39;101098.09;;;4.99;49.84
34237;BME280;20501;45.956;13.632;2023-01-30T03:25:05;101100.00;;;6.14;49.81
34237;BME280;20501;45.956;13.632;2023-01-30T03:27:33;101096.22;;;7.39;50.19
34237;BME280;20501;45.956;13.632;2023-01-30T03:29:59;101100.00;;;6.84;48.80
34237;BME280;20501;45.956;13.632;2023-01-30T03:32:25;101094.22;;;6.62;49.18
34237;BME280;20501;45.956;13.632;2023-01-30T03:34:50;101095.25;;;6.47;50.30
34237;BME280;20501;45.956;13.632;2023-01-30T03:37:15;101082.75;;;7.65;48.51
34237;BME280;20501;45.956;13.632;2023-01-30T03:39:41;101081.97;;;7.89;46.71
34237;BME280;20501;45.956;13.632;2023-01-30T03:42:08;101073.81;;;8.28;46.52
34237;BME280;20501;45.956;13.632;2023-01-30T03:44:33;101078.28;;;8.40;45.30
34237;BME280;20501;45.956;13.632;2023-01-30T03:46:59;101071.00;;;6.61;46.69
34237;BME280;20501;45.956;13.632;2023-01-30T03:49:24;101066.31;;;7.31;47.78
34237;BME280;20501;45.956;13.632;2023-01-30T03:51:50;101066.03;;;5.57;52.87
34237;BME280;20501;45.956;13.632;2023-01-30T03:54:15;101065.25;;;6.40;49.63
34237;BME280;20501;45.956;13.632;2023-01-30T03:56:40;101071.75;;;6.50;47.45
34237;BME280;20501;45.956;13.632;2023-01-30T03:59:06;101067.88;;;7.85;47.20
34237;BME280;20501;45.956;13.632;2023-01-30T04:01:31;101066.97;;;8.35;43.19
34237;BME280;20501;45.956;13.632;2023-01-30T04:03:57;101068.44;;;7.78;45.02
34237;BME280;20501;45.956;13.632;2023-01-30T04:06:22;101055.53;;;8.44;46.79
34237;BME280;20501;45.956;13.632;2023-01-30T04:08:51;101051.31;;;8.53;45.79
34237;BME280;20501;45.956;13.632;2023-01-30T04:11:16;101048.75;;;8.51;46.77
34237;BME280;20501;45.956;13.632;2023-01-30T04:13:42;101045.41;;;9.19;44.72
34237;BME280;20501;45.956;13.632;2023-01-30T04:16:21;101046.97;;;6.32;47.30
34237;BME280;20501;45.956;13.632;2023-01-30T04:18:47;101055.22;;;4.54;51.05
34237;BME280;20501;45.956;13.632;2023-01-30T04:21:13;101054.81;;;5.36;51.27
34237;BME280;20501;45.956;13.632;2023-01-30T04:23:38;101049.94;;;3.56;56.14
34237;BME280;20501;45.956;13.632;2023-01-30T04:26:05;101047.69;;;3.15;57.40
34237;BME280;20501;45.956;13.632;2023-01-30T04:28:31;101045.81;;;3.17;55.57
34237;BME280;20501;45.956;13.632;2023-01-30T04:30:56;101047.25;;;4.69;51.41
34237;BME280;20501;45.956;13.632;2023-01-30T04:33:22;101047.94;;;6.59;51.67
34237;BME280;20501;45.956;13.632;2023-01-30T04:35:52;101043.03;;;7.82;47.17
34237;BME280;20501;45.956;13.632;2023-01-30T04:38:17;101035.41;;;8.97;45.91
34237;BME280;20501;45.956;13.632;2023-01-30T04:40:47;101036.63;;;8.81;44.21
34237;BME280;20501;45.956;13.632;2023-01-30T04:43:13;101028.38;;;9.30;44.34
34237;BME280;20501;45.956;13.632;2023-01-30T04:45:42;101036.38;;;8.12;45.17
34237;BME280;20501;45.956;13.632;2023-01-30T04:48:07;101038.09;;;5.47;52.92
34237;BME280;20501;45.956;13.632;2023-01-30T04:50:33;101043.44;;;4.26;53.20
34237;BME280;20501;45.956;13.632;2023-01-30T04:52:58;101037.59;;;7.19;49.69
34237;BME280;20501;45.956;13.632;2023-01-30T04:55:24;101033.84;;;4.38;51.85
34237;BME280;20501;45.956;13.632;2023-01-30T04:57:49;101032.59;;;6.06;52.77
34237;BME280;20501;45.956;13.632;2023-01-30T05:00:15;101024.72;;;7.87;49.33
34237;BME280;20501;45.956;13.632;2023-01-30T05:02:40;101008.97;;;8.55;46.71
34237;BME280;20501;45.956;13.632;2023-01-30T05:05:06;101009.72;;;7.58;48.57
34237;BME280;20501;45.956;13.632;2023-01-30T05:07:31;101011.75;;;7.68;46.96
34237;BME280;20501;45.956;13.632;2023-01-30T05:09:56;101010.19;;;8.98;45.12
34237;BME280;20501;45.956;13.632;2023-01-30T05:12:22;101003.97;;;8.37;43.47
34237;BME280;20501;45.956;13.632;2023-01-30T05:14:47;101003.34;;;8.10;43.11
34237;BME280;20501;45.956;13.632;2023-01-30T05:17:13;101016.31;;;8.89;45.35
34237;BME280;20501;45.956;13.632;2023-01-30T05:19:38;101012.66;;;6.78;46.00
34237;BME280;20501;45.956;13.632;2023-01-30T05:22:03;101021.69;;;7.41;45.52
34237;BME280;20501;45.956;13.632;2023-01-30T05:24:29;101020.38;;;7.47;47.89
34237;BME280;20501;45.956;13.632;2023-01-30T05:26:54;101035.09;;;7.03;47.15
34237;BME280;20501;45.956;13.632;2023-01-30T05:29:19;101027.13;;;8.64;45.85
34237;BME280;20501;45.956;13.632;2023-01-30T05:31:45;101026.16;;;9.12;44.40
34237;BME280;20501;45.956;13.632;2023-01-30T05:34:11;101027.41;;;9.31;44.44
34237;BME280;20501;45.956;13.632;2023-01-30T05:36:36;101033.06;;;9.62;43.79
34237;BME280;20501;45.956;13.632;2023-01-30T05:39:02;101033.78;;;9.64;43.45
34237;BME280;20501;45.956;13.632;2023-01-30T05:41:28;101040.16;;;9.74;43.43
34237;BME280;20501;45.956;13.632;2023-01-30T05:43:53;101043.59;;;9.76;43.26
34237;BME280;20501;45.956;13.632;2023-01-30T05:46:19;101027.97;;;8.16;43.17
34237;BME280;20501;45.956;13.632;2023-01-30T05:48:45;101032.28;;;9.14;45.07
34237;BME280;20501;45.956;13.632;2023-01-30T05:51:16;101030.59;;;9.25;43.98
34237;BME280;20501;45.956;13.632;2023-01-30T05:53:42;101033.28;;;8.05;46.74
34237;BME280;20501;45.956;13.632;2023-01-30T05:56:07;101043.91;;;6.79;47.14
34237;BME280;20501;45.956;13.632;2023-01-30T05:58:33;101050.09;;;4.19;50.92
34237;BME280;20501;45.956;13.632;2023-01-30T06:01:04;101047.72;;;6.07;50.56
34237;BME280;20501;45.956;13.632;2023-01-30T06:03:29;101051.78;;;8.10;47.28
34237;BME280;20501;45.956;13.632;2023-01-30T06:05:55;101043.97;;;8.79;45.92
34237;BME280;20501;45.956;13.632;2023-01-30T06:08:20;101037.69;;;8.67;45.29
34237;BME280;20501;45.956;13.632;2023-01-30T06:10:46;101047.75;;;9.24;44.74
34237;BME280;20501;45.956;13.632;2023-01-30T06:13:11;101052.56;;;8.60;44.70
34237;BME280;20501;45.956;13.632;2023-01-30T06:15:37;101058.69;;;8.98;45.36
34237;BME280;20501;45.956;13.632;2023-01-30T06:18:03;101061.13;;;7.54;46.26
34237;BME280;20501;45.956;13.632;2023-01-30T06:20:28;101056.16;;;5.86;49.99
34237;BME280;20501;45.956;13.632;2023-01-30T06:22:53;101048.03;;;7.49;47.18
34237;BME280;20501;45.956;13.632;2023-01-30T06:25:19;101038.44;;;8.81;45.69
34237;BME280;20501;45.956;13.632;2023-01-30T06:27:45;101041.09;;;8.70;45.20
34237;BME280;20501;45.956;13.632;2023-01-30T06:30:11;101040.38;;;8.67;45.79
34237;BME280;20501;45.956;13.632;2023-01-30T06:32:36;101039.41;;;8.07;46.62
34237;BME280;20501;45.956;13.632;2023-01-30T06:35:02;101052.84;;;7.83;47.09
34237;BME280;20501;45.956;13.632;2023-01-30T06:37:28;101049.78;;;8.25;45.87
34237;BME280;20501;45.956;13.632;2023-01-30T06:39:53;101058.31;;;8.56;45.39
34237;BME280;20501;45.956;13.632;2023-01-30T06:42:18;101054.28;;;8.61;45.61
34237;BME280;20501;45.956;13.632;2023-01-30T06:44:44;101059.22;;;8.67;44.90
34237;BME280;20501;45.956;13.632;2023-01-30T06:47:09;101053.09;;;8.65;45.01
34237;BME280;20501;45.956;13.632;2023-01-30T06:49:34;101058.22;;;8.20;46.31
34237;BME280;20501;45.956;13.632;2023-01-30T06:52:00;101058.66;;;8.51;45.24
34237;BME280;20501;45.956;13.632;2023-01-30T06:54:25;101057.78;;;7.76;46.94
34237;BME280;20501;45.956;13.632;2023-01-30T06:56:51;101065.63;;;8.78;45.42
34237;BME280;20501;45.956;13.632;2023-01-30T06:59:16;101071.19;;;8.99;44.50
34237;BME280;20501;45.956;13.632;2023-01-30T07:01:41;101072.44;;;7.46;43.87
34237;BME280;20501;45.956;13.632;2023-01-30T07:04:07;101075.78;;;7.63;48.68
34237;BME280;20501;45.956;13.632;2023-01-30T07:06:32;101068.81;;;6.81;49.25
34237;BME280;20501;45.956;13.632;2023-01-30T07:08:58;101071.25;;;7.76;46.68
34237;BME280;20501;45.956;13.632;2023-01-30T07:11:24;101055.66;;;6.63;50.35
34237;BME280;20501;45.956;13.632;2023-01-30T07:13:50;101055.09;;;7.76;45.34
34237;BME280;20501;45.956;13.632;2023-01-30T07:16:15;101053.72;;;8.45;46.47
34237;BME280;20501;45.956;13.632;2023-01-30T07:18:41;101050.22;;;8.56;44.29
34237;BME280;20501;45.956;13.632;2023-01-30T07:21:06;101057.06;;;9.31;44.35
34237;BME280;20501;45.956;13.632;2023-01-30T07:23:31;101049.13;;;8.82;45.24
34237;BME280;20501;45.956;13.632;2023-01-30T07:25:57;101045.38;;;9.08;44.78
34237;BME280;20501;45.956;13.632;2023-01-30T07:28:22;101037.31;;;9.08;45.16
34237;BME280;20501;45.956;13.632;2023-01-30T07:30:48;101026.94;;;7.30;45.88
34237;BME280;20501;45.956;13.632;2023-01-30T07:33:17;101013.00;;;8.12;46.39
34237;BME280;20501;45.956;13.632;2023-01-30T07:35:42;101007.41;;;8.64;45.46
34237;BME280;20501;45.956;13.632;2023-01-30T07:38:08;101010.50;;;9.40;43.70
34237;BME280;20501;45.956;13.632;2023-01-30T07:40:33;101021.88;;;9.67;43.38
34237;BME280;20501;45.956;13.632;2023-01-30T07:43:11;101038.00;;;8.87;44.30
34237;BME280;20501;45.956;13.632;2023-01-30T07:45:42;101024.72;;;9.31;43.97
34237;BME280;20501;45.956;13.632;2023-01-30T07:48:10;101021.03;;;9.43;43.54
34237;BME280;20501;45.956;13.632;2023-01-30T07:50:35;101031.47;;;9.48;42.69
34237;BME280;20501;45.956;13.632;2023-01-30T07:53:02;101047.50;;;9.61;43.23
34237;BME280;20501;45.956;13.632;2023-01-30T07:55:28;101050.59;;;9.79;43.19
34237;BME280;20501;45.956;13.632;2023-01-30T07:57:54;101054.53;;;9.75;42.97
34237;BME280;20501;45.956;13.632;2023-01-30T08:00:20;101044.31;;;9.33;43.87
34237;BME280;20501;45.956;13.632;2023-01-30T08:02:45;101043.97;;;8.79;44.65
34237;BME280;20501;45.956;13.632;2023-01-30T08:05:11;101037.31;;;8.72;45.76
34237;BME280;20501;45.956;13.632;2023-01-30T08:07:36;101048.28;;;8.58;46.29
34237;BME280;20501;45.956;13.632;2023-01-30T08:10:02;101049.38;;;5.52;48.66
34237;BME280;20501;45.956;13.632;2023-01-30T08:12:28;101035.78;;;5.40;50.12
34237;BME280;20501;45.956;13.632;2023-01-30T08:14:53;101034.59;;;6.97;48.84
34237;BME280;20501;45.956;13.632;2023-01-30T08:17:19;101022.44;;;5.97;49.68
34237;BME280;20501;45.956;13.632;2023-01-30T08:19:44;101029.56;;;5.25;50.66
34237;BME280;20501;45.956;13.632;2023-01-30T08:22:10;101036.81;;;6.78;50.83
34237;BME280;20501;45.956;13.632;2023-01-30T08:24:35;101009.38;;;5.49;50.14
34237;BME280;20501;45.956;13.632;2023-01-30T08:27:00;101009.25;;;8.15;47.74
34237;BME280;20501;45.956;13.632;2023-01-30T08:29:26;101007.75;;;5.17;52.77
34237;BME280;20501;45.956;13.632;2023-01-30T08:31:56;100993.19;;;8.37;47.15
34237;BME280;20501;45.956;13.632;2023-01-30T08:34:21;100985.81;;;8.88;46.66
34237;BME280;20501;45.956;13.632;2023-01-30T08:36:47;100983.03;;;9.24;44.99
34237;BME280;20501;45.956;13.632;2023-01-30T08:39:13;100993.66;;;8.31;45.75
34237;BME280;20501;45.956;13.632;2023-01-30T08:41:38;100986.38;;;7.96;47.81
34237;BME280;20501;45.956;13.632;2023-01-30T08:44:07;100985.84;;;9.11;45.14
34237;BME280;20501;45.956;13.632;2023-01-30T08:46:33;100977.47;;;8.80;46.60
34237;BME280;20501;45.956;13.632;2023-01-30T08:48:58;100980.81;;;9.74;44.30
34237;BME280;20501;45.956;13.632;2023-01-30T08:51:24;100977.31;;;8.70;45.48
34237;BME280;20501;45.956;13.632;2023-01-30T08:53:49;100992.88;;;7.05;47.06
34237;BME280;20501;45.956;13.632;2023-01-30T08:56:14;100995.50;;;4.99;51.86
34237;BME280;20501;45.956;13.632;2023-01-30T08:58:40;100996.91;;;5.19;55.02
34237;BME280;20501;45.956;13.632;2023-01-30T09:01:07;100985.19;;;5.21;51.46
34237;BME280;20501;45.956;13.632;2023-01-30T09:03:33;100987.13;;;4.74;52.75
34237;BME280;20501;45.956;13.632;2023-01-30T09:05:58;100992.25;;;7.27;50.91
34237;BME280;20501;45.956;13.632;2023-01-30T09:08:24;100991.28;;;7.28;47.84
34237;BME280;20501;45.956;13.632;2023-01-30T09:10:49;100986.44;;;7.83;48.96
34237;BME280;20501;45.956;13.632;2023-01-30T09:13:15;100976.66;;;7.82;49.10
34237;BME280;20501;45.956;13.632;2023-01-30T09:15:41;100986.41;;;7.46;46.83
34237;BME280;20501;45.956;13.632;2023-01-30T09:18:07;100984.06;;;7.03;49.38
34237;BME280;20501;45.956;13.632;2023-01-30T09:20:32;100979.97;;;6.97;50.73
34237;BME280;20501;45.956;13.632;2023-01-30T09:22:58;100976.13;;;7.01;48.19
34237;BME280;20501;45.956;13.632;2023-01-30T09:25:24;100968.00;;;8.63;47.23
34237;BME280;20501;45.956;13.632;2023-01-30T09:27:49;100968.06;;;9.08;45.87
34237;BME280;20501;45.956;13.632;2023-01-30T09:30:15;100973.91;;;8.79;44.28
34237;BME280;20501;45.956;13.632;2023-01-30T09:32:41;100986.56;;;6.80;48.31
34237;BME280;20501;45.956;13.632;2023-01-30T09:35:09;100976.06;;;6.37;51.44
34237;BME280;20501;45.956;13.632;2023-01-30T09:37:35;100982.16;;;6.11;51.03
34237;BME280;20501;45.956;13.632;2023-01-30T09:40:00;100979.78;;;6.07;52.06
34237;BME280;20501;45.956;13.632;2023-01-30T09:43:07;100968.22;;;7.87;48.50
34237;BME280;20501;45.956;13.632;2023-01-30T09:48:53;100951.00;;;6.23;52.28
34237;BME280;20501;45.956;13.632;2023-01-30T09:54:25;100944.63;;;7.16;47.04
34237;BME280;20501;45.956;13.632;2023-01-30T09:57:18;100941.50;;;6.58;48.94
34237;BME280;20501;45.956;13.632;2023-01-30T10:05:10;100933.03;;;6.77;51.36
34237;BME280;20501;45.956;13.632;2023-01-30T10:07:40;100931.94;;;7.93;48.31
34237;BME280;20501;45.956;13.632;2023-01-30T10:24:13;100913.31;;;8.38;44.61
34237;BME280;20501;45.956;13.632;2023-01-30T10:26:43;100919.94;;;7.11;46.01
34237;BME280;20501;45.956;13.632;2023-01-30T10:29:17;100902.28;;;7.07;46.74
34237;BME280;20501;45.956;13.632;2023-01-30T10:31:53;100887.84;;;8.06;45.03
34237;BME280;20501;45.956;13.632;2023-01-30T10:34:41;100882.25;;;8.10;44.36
34237;BME280;20501;45.956;13.632;2023-01-30T10:40:12;100856.34;;;9.12;42.95
34237;BME280;20501;45.956;13.632;2023-01-30T10:42:57;100855.53;;;9.88;41.72
34237;BME280;20501;45.956;13.632;2023-01-30T10:48:57;100830.00;;;8.48;43.99
34237;BME280;20501;45.956;13.632;2023-01-30T10:56:49;100826.41;;;8.36;44.25
34237;BME280;20501;45.956;13.632;2023-01-30T10:59:29;100811.47;;;8.32;43.52
34237;BME280;20501;45.956;13.632;2023-01-30T11:04:55;100820.59;;;8.06;45.28
34237;BME280;20501;45.956;13.632;2023-01-30T11:07:22;100814.06;;;8.33;45.70
34237;BME280;20501;45.956;13.632;2023-01-30T11:09:47;100812.78;;;8.26;46.91
34237;BME280;20501;45.956;13.632;2023-01-30T11:12:13;100803.16;;;9.26;45.73
34237;BME280;20501;45.956;13.632;2023-01-30T11:20:11;100782.75;;;7.85;45.42
34237;BME280;20501;45.956;13.632;2023-01-30T11:22:44;100785.56;;;8.42;45.80
34237;BME280;20501;45.956;13.632;2023-01-30T11:25:14;100780.31;;;8.75;44.20
34237;BME280;20501;45.956;13.632;2023-01-30T11:27:42;100782.41;;;8.71;44.78
34237;BME280;20501;45.956;13.632;2023-01-30T11:32:41;100770.34;;;9.09;42.75
34237;BME280;20501;45.956;13.632;2023-01-30T11:37:38;100761.47;;;9.30;43.76
34237;BME280;20501;45.956;13.632;2023-01-30T11:40:25;100755.53;;;9.04;44.70
34237;BME280;20501;45.956;13.632;2023-01-30T11:43:12;100753.06;;;9.98;44.01
34237;BME280;20501;45.956;13.632;2023-01-30T11:45:43;100756.28;;;10.65;42.62
34237;BME280;20501;45.956;13.632;2023-01-30T11:48:22;100752.81;;;10.94;42.14
34237;BME280;20501;45.956;13.632;2023-01-30T11:50:55;100737.94;;;11.20;40.79
34237;BME280;20501;45.956;13.632;2023-01-30T11:53:42;100727.19;;;10.48;42.16
34237;BME280;20501;45.956;13.632;2023-01-30T11:58:41;100702.16;;;10.87;43.22
34237;BME280;20501;45.956;13.632;2023-01-30T12:01:11;100698.63;;;10.45;43.47
34237;BME280;20501;45.956;13.632;2023-01-30T12:03:51;100702.50;;;11.42;41.96
34237;BME280;20501;45.956;13.632;2023-01-30T12:06:33;100700.59;;;10.43;42.84
34237;BME280;20501;45.956;13.632;2023-01-30T12:08:59;100697.81;;;9.71;45.33
34237;BME280;20501;45.956;13.632;2023-01-30T12:11:30;100690.09;;;10.19;42.98
34237;BME280;20501;45.956;13.632;2023-01-30T12:25:26;100669.72;;;11.65;40.55
34237;BME280;20501;45.956;13.632;2023-01-30T12:28:01;100657.06;;;10.77;42.94
34237;BME280;20501;45.956;13.632;2023-01-30T12:30:41;100657.50;;;11.51;42.19
34237;BME280;20501;45.956;13.632;2023-01-30T12:33:12;100641.00;;;11.15;41.83
34237;BME280;20501;45.956;13.632;2023-01-30T12:36:11;100639.16;;;11.25;41.01
34237;BME280;20501;45.956;13.632;2023-01-30T12:41:31;100614.25;;;10.82;42.47
34237;BME280;20501;45.956;13.632;2023-01-30T12:46:59;100611.84;;;11.09;43.72
34237;BME280;20501;45.956;13.632;2023-01-30T13:14:49;100614.66;;;9.02;48.16
34237;BME280;20501;45.956;13.632;2023-01-30T13:18:14;100618.38;;;8.45;47.87
34237;BME280;20501;45.956;13.632;2023-01-30T13:26:29;100582.97;;;9.05;47.29
34237;BME280;20501;45.956;13.632;2023-01-30T13:29:01;100578.16;;;9.30;47.01
34237;BME280;20501;45.956;13.632;2023-01-30T13:31:30;100582.38;;;9.44;46.60
34237;BME280;20501;45.956;13.632;2023-01-30T13:34:11;100578.78;;;9.65;46.96
34237;BME280;20501;45.956;13.632;2023-01-30T13:37:34;100566.66;;;9.07;48.02
34237;BME280;20501;45.956;13.632;2023-01-30T13:42:29;100571.03;;;8.54;49.62
34237;BME280;20501;45.956;13.632;2023-01-30T13:44:57;100576.78;;;8.38;49.61
34237;BME280;20501;45.956;13.632;2023-01-30T13:50:33;100570.03;;;7.66;51.28
34237;BME280;20501;45.956;13.632;2023-01-30T13:58:52;100561.50;;;8.50;49.46
34237;BME280;20501;45.956;13.632;2023-01-30T14:01:20;100557.78;;;8.62;49.81
34237;BME280;20501;45.956;13.632;2023-01-30T14:03:47;100557.31;;;8.90;49.52
34237;BME280;20501;45.956;13.632;2023-01-30T14:06:32;100572.78;;;9.09;49.48
34237;BME280;20501;45.956;13.632;2023-01-30T14:09:02;100569.28;;;7.86;51.20
34237;BME280;20501;45.956;13.632;2023-01-30T14:11:40;100567.53;;;8.75;50.05
34237;BME280;20501;45.956;13.632;2023-01-30T14:16:47;100548.41;;;9.41;48.59
34237;BME280;20501;45.956;13.632;2023-01-30T14:22:00;100541.66;;;8.51;49.52
34237;BME280;20501;45.956;13.632;2023-01-30T14:24:27;100534.69;;;9.44;49.15
34237;BME280;20501;45.956;13.632;2023-01-30T14:37:26;100511.84;;;8.31;50.76
34237;BME280;20501;45.956;13.632;2023-01-30T14:39:53;100514.75;;;8.51;50.67
34237;BME280;20501;45.956;13.632;2023-01-30T14:42:29;100511.84;;;8.64;50.28
34237;BME280;20501;45.956;13.632;2023-01-30T14:45:00;100506.78;;;9.55;49.03
34237;BME280;20501;45.956;13.632;2023-01-30T14:47:27;100503.59;;;9.19;49.66
34237;BME280;20501;45.956;13.632;2023-01-30T14:49:53;100514.09;;;9.43;47.86
34237;BME280;20501;45.956;13.632;2023-01-30T14:52:44;100514.44;;;9.29;50.00
34237;BME280;20501;45.956;13.632;2023-01-30T14:55:18;100518.88;;;10.21;47.53
34237;BME280;20501;45.956;13.632;2023-01-30T14:57:53;100508.72;;;9.84;48.51
34237;BME280;20501;45.956;13.632;2023-01-30T15:00:25;100510.16;;;10.39;47.23
34237;BME280;20501;45.956;13.632;2023-01-30T15:02:58;100500.47;;;10.36;46.97
34237;BME280;20501;45.956;13.632;2023-01-30T15:05:29;100498.75;;;10.35;46.83
34237;BME280;20501;45.956;13.632;2023-01-30T15:08:02;100514.22;;;10.14;47.83
34237;BME280;20501;45.956;13.632;2023-01-30T15:30:15;100511.84;;;9.49;49.77
34237;BME280;20501;45.956;13.632;2023-01-30T15:32:44;100511.47;;;9.63;49.81
34237;BME280;20501;45.956;13.632;2023-01-30T15:37:52;100525.25;;;9.60;49.83
34237;BME280;20501;45.956;13.632;2023-01-30T15:40:18;100525.56;;;10.27;48.33
34237;BME280;20501;45.956;13.632;2023-01-30T15:42:45;100529.88;;;10.30;48.05
34237;BME280;20501;45.956;13.632;2023-01-30T15:45:32;100535.63;;;10.05;48.60
34237;BME280;20501;45.956;13.632;2023-01-30T15:50:51;100521.13;;;10.57;47.54
34237;BME280;20501;45.956;13.632;2023-01-30T15:53:24;100509.91;;;10.11;47.81
34237;BME280;20501;45.956;13.632;2023-01-30T15:55:52;100525.59;;;8.61;53.01
34237;BME280;20501;45.956;13.632;2023-01-30T15:58:19;100514.06;;;10.35;48.21
34237;BME280;20501;45.956;13.632;2023-01-30T16:00:48;100509.31;;;10.78;47.13
34237;BME280;20501;45.956;13.632;2023-01-30T16:03:19;100504.59;;;10.90;46.69
34237;BME280;20501;45.956;13.632;2023-01-30T16:05:50;100504.75;;;10.88;46.84
34237;BME280;20501;45.956;13.632;2023-01-30T16:08:27;100517.63;;;9.75;48.99
34237;BME280;20501;45.956;13.632;2023-01-30T16:10:53;100514.38;;;8.98;51.33